CDT,Max TemperatureF,Mean TemperatureF,Min TemperatureF,Max Dew PointF,MeanDew PointF,Min DewpointF,Max Humidity, Mean Humidity, Min Humidity, Max Sea Level PressureIn, Mean Sea Level PressureIn, Min Sea Level PressureIn, Max VisibilityMiles, Mean VisibilityMiles, Min VisibilityMiles, Max Wind SpeedMPH, Mean Wind SpeedMPH, Max Gust SpeedMPH,PrecipitationIn, CloudCover, Events, WindDirDegrees
2012-10-1,73,60,46,45,38,32,67,44,23,29.96,29.92,29.87,10,10,10,23,8,29,0.00,0,,330
2012-10-2,73,56,39,43,34,28,76,48,19,29.99,29.95,29.88,10,10,4,8,5,,0.00,0,,130
2012-10-3,,,,,,,,,,,,,,,,,,,,,,
2012-10-4,53,48,44,32,30,27,57,49,41,30.22,30.16,30.08,10,10,10,28,22,37,0.00,6,,286
2012-10-5,50,42,33,30,25,19,75,52,30,30.21,30.19,30.15,10,10,10,26,17,37,0.00,3,,289
2012-10-6,44,38,33,30,24,18,75,56,36,30.28,30.24,30.18,10,10,10,23,13,30,0.00,7,,304
2012-10-7,53,36,19,25,18,10,86,48,18,30.25,30.11,29.93,10,10,7,20,7,26,0.00,0,,209
2012-10-8,69,54,39,45,28,19,76,43,15,29.92,29.78,29.65,10,10,7,29,14,36,0.02,5,Rain,205
2012-10-9,51,43,33,46,35,23,87,65,43,30.03,29.86,29.77,10,10,7,25,11,36,0.06,6,Rain,264
2012-10-10,55,42,28,30,23,18,81,50,24,30.15,30.05,29.91,10,10,10,18,8,23,0.00,3,,237
2012-10-11,53,42,28,32,23,9,61,42,20,30.40,30.12,29.86,10,10,10,26,15,33,0.00,2,,317
2012-10-12,53,38,23,27,16,9,80,42,16,30.44,30.31,30.05,10,10,10,17,7,26,0.00,1,Thunderstorm,131
2012-10-13,64,55,46,59,48,27,88,76,38,30.05,29.80,29.66,10,8,2,18,13,29,0.01,8,Thunderstorm,161
2012-10-14,59,52,44,50,40,32,88,67,38,29.91,29.78,29.70,10,9,3,26,14,32,0.00,5,,335
2012-10-15,64,47,30,39,33,27,93,56,28,29.99,29.90,29.78,10,10,7,14,5,17,0.00,1,,188
2012-10-16,69,58,46,50,43,37,82,59,40,29.77,29.54,29.39,10,10,10,18,12,26,0.01,2,Rain-Thunderstorm,146
2012-10-17,62,53,44,50,41,34,82,62,36,29.38,29.31,29.22,10,10,5,28,12,33,0.00,6,Rain,218
2012-10-18,46,44,41,41,40,36,87,83,76,29.40,29.29,29.20,10,7,2,16,10,20,0.03,8,Rain,270
2012-10-19,53,47,41,50,42,36,88,83,71,29.76,29.60,29.40,10,6,0,20,5,25,0.09,7,Fog-Rain,315
2012-10-20,51,48,44,45,42,39,87,83,71,29.85,29.81,29.76,10,6,0,12,6,,0.00,7,Fog,182
2012-10-21,73,58,44,52,44,37,81,67,43,29.91,29.82,29.77,10,10,7,22,11,26,0.00,0,,150
2012-10-22,64,55,46,52,49,43,88,75,59,29.91,29.88,29.84,10,9,5,15,7,20,0.00,6,Thunderstorm,50
2012-10-23,68,64,59,59,56,52,88,76,64,29.84,29.77,29.71,7,5,2,17,11,24,0.00,8,Thunderstorm,148
2012-10-24,62,56,51,55,52,46,88,83,72,29.86,29.80,29.75,10,4,1,15,8,20,0.18,8,Rain-Thunderstorm,350
2012-10-25,51,44,37,46,36,27,93,81,61,30.21,29.90,29.66,10,7,1,29,18,36,0.74,8,Rain-Thunderstorm,316
2012-10-26,41,36,32,30,27,23,81,68,52,30.41,30.35,30.22,10,10,10,21,11,28,0.00,6,,272
2012-10-27,44,36,28,30,24,16,87,64,36,30.39,30.35,30.30,10,10,10,12,3,,0.00,2,,218
2012-10-28,48,37,26,27,23,19,75,60,34,30.36,30.32,30.27,10,10,10,15,6,20,0.00,2,,138
2012-10-29,44,37,30,30,26,21,81,64,49,30.32,30.28,30.23,10,10,10,16,9,22,0.00,4,,116
2012-10-30,48,39,30,30,26,21,81,69,46,30.23,30.14,30.06,10,10,10,14,7,,0.00,0,,17
2012-10-31,53,38,23,30,20,12,80,54,22,30.07,30.02,29.95,10,10,10,12,4,16,0.00,2,,322